createdAt,value
2019-01-23T00:00:27.410Z,15.57
2019-01-23T00:01:27.358Z,15.57
2019-01-23T00:02:27.306Z,15.68
2019-01-23T00:03:27.254Z,15.57
2019-01-23T00:04:27.202Z,15.69
2019-01-23T00:05:27.149Z,15.65
2019-01-23T00:06:27.098Z,15.67
2019-01-23T00:07:27.046Z,15.68
2019-01-23T00:08:26.999Z,15.71
2019-01-23T00:09:26.943Z,15.67
2019-01-23T00:10:26.890Z,15.59
2019-01-23T00:11:26.838Z,15.57
2019-01-23T00:12:26.786Z,15.65
2019-01-23T00:13:26.733Z,15.53
2019-01-23T00:14:26.681Z,15.46
2019-01-23T00:15:26.628Z,15.50
2019-01-23T00:16:26.578Z,15.54
2019-01-23T00:17:26.526Z,15.56
2019-01-23T00:18:26.473Z,15.53
2019-01-23T00:19:26.421Z,15.46
2019-01-23T00:20:26.370Z,15.49
2019-01-23T00:21:26.317Z,15.46
2019-01-23T00:22:26.266Z,15.59
2019-01-23T00:23:26.218Z,15.54
2019-01-23T00:24:26.161Z,15.56
2019-01-23T00:25:26.110Z,15.60
2019-01-23T00:26:26.057Z,15.57
2019-01-23T00:27:26.005Z,15.60
2019-01-23T00:28:25.954Z,15.53
2019-01-23T00:29:25.902Z,15.53
2019-01-23T00:30:25.849Z,15.47
2019-01-23T00:31:25.797Z,15.54
2019-01-23T00:32:25.747Z,15.49
2019-01-23T00:33:25.736Z,15.54
2019-01-23T00:34:25.642Z,15.41
2019-01-23T00:35:25.591Z,15.38
2019-01-23T00:36:25.537Z,15.38
2019-01-23T00:37:25.485Z,15.38
2019-01-23T00:38:25.432Z,15.44
2019-01-23T00:39:25.388Z,15.34
2019-01-23T00:40:25.330Z,15.38
2019-01-23T00:41:25.276Z,15.38
2019-01-23T00:42:25.229Z,15.39
2019-01-23T00:43:25.171Z,15.36
2019-01-23T00:44:25.168Z,15.36
2019-01-23T00:45:25.070Z,15.34
2019-01-23T00:46:25.017Z,15.36
2019-01-23T00:47:24.963Z,15.38
2019-01-23T00:48:24.911Z,15.46
2019-01-23T00:49:24.860Z,15.38
2019-01-23T00:50:24.806Z,15.46
2019-01-23T00:51:24.754Z,15.38
2019-01-23T00:52:24.701Z,15.43
2019-01-23T00:53:24.650Z,15.41
2019-01-23T00:54:24.647Z,15.46
2019-01-23T00:55:24.696Z,15.36
2019-01-23T00:56:24.494Z,15.46
2019-01-23T00:57:24.449Z,15.46
2019-01-23T00:58:24.389Z,15.41
2019-01-23T00:59:24.339Z,15.41
2019-01-23T01:00:24.285Z,15.51
2019-01-23T01:01:24.232Z,15.46
2019-01-23T01:02:24.185Z,15.50
2019-01-23T01:03:24.128Z,15.46
2019-01-23T01:04:24.076Z,15.47
2019-01-23T01:05:24.025Z,15.46
2019-01-23T01:06:23.972Z,15.47
2019-01-23T01:07:23.921Z,15.44
2019-01-23T01:08:23.868Z,15.51
2019-01-23T01:09:23.817Z,15.46
2019-01-23T01:10:23.764Z,15.47
2019-01-23T01:11:23.712Z,15.43
2019-01-23T01:12:23.659Z,15.41
2019-01-23T01:13:23.607Z,15.41
2019-01-23T01:14:23.606Z,15.49
2019-01-23T01:15:23.502Z,15.46
2019-01-23T01:16:23.460Z,15.43
2019-01-23T01:17:23.398Z,15.43
2019-01-23T01:18:23.348Z,15.49
2019-01-23T01:19:23.297Z,15.53
2019-01-23T01:20:23.241Z,15.57
2019-01-23T01:21:23.194Z,15.54
2019-01-23T01:22:23.136Z,15.41
2019-01-23T01:23:23.087Z,15.50
2019-01-23T01:24:23.033Z,15.44
2019-01-23T01:25:22.981Z,15.47
2019-01-23T01:26:22.927Z,15.39
2019-01-23T01:27:22.876Z,15.31
2019-01-23T01:28:22.824Z,15.32
2019-01-23T01:29:22.772Z,15.36
2019-01-23T01:30:22.721Z,15.39
2019-01-23T01:31:22.667Z,15.41
2019-01-23T01:32:22.615Z,15.41
2019-01-23T01:33:22.614Z,15.47
2019-01-23T01:34:22.512Z,15.43
2019-01-23T01:35:22.462Z,15.46
2019-01-23T01:36:22.406Z,15.36
2019-01-23T01:37:22.356Z,15.36
2019-01-23T01:38:22.302Z,15.38
2019-01-23T01:39:22.250Z,15.46
2019-01-23T01:40:22.202Z,15.50
2019-01-23T01:41:22.146Z,15.46
2019-01-23T01:42:22.093Z,15.46
2019-01-23T01:43:22.040Z,15.47
2019-01-23T01:44:21.989Z,15.50
2019-01-23T01:45:21.938Z,15.44
2019-01-23T01:46:21.885Z,15.46
2019-01-23T01:47:21.833Z,15.47
2019-01-23T01:48:21.782Z,15.41
2019-01-23T01:49:21.729Z,15.34
2019-01-23T01:50:21.675Z,15.35
2019-01-23T01:51:21.626Z,15.43
2019-01-23T01:52:21.573Z,15.36
2019-01-23T01:53:21.570Z,15.49
2019-01-23T01:54:21.509Z,15.43
2019-01-23T01:55:21.415Z,15.46
2019-01-23T01:56:21.363Z,15.38
2019-01-23T01:57:21.312Z,15.43
2019-01-23T01:58:21.258Z,15.49
2019-01-23T01:59:21.207Z,15.43
2019-01-23T02:00:21.158Z,15.43
2019-01-23T02:01:21.106Z,15.41
2019-01-23T02:02:21.050Z,15.32
2019-01-23T02:03:20.998Z,15.36
2019-01-23T02:04:20.946Z,15.31
2019-01-23T02:05:20.894Z,15.41
2019-01-23T02:06:20.841Z,15.32
2019-01-23T02:07:20.788Z,15.43
2019-01-23T02:08:20.737Z,15.46
2019-01-23T02:09:20.685Z,15.47
2019-01-23T02:10:20.632Z,15.44
2019-01-23T02:11:20.580Z,15.46
2019-01-23T02:12:20.528Z,15.44
2019-01-23T02:13:20.476Z,15.46
2019-01-23T02:14:20.424Z,15.46
2019-01-23T02:15:20.371Z,15.50
2019-01-23T02:16:20.320Z,15.51
2019-01-23T02:17:20.271Z,15.50
2019-01-23T02:18:20.215Z,15.41
2019-01-23T02:19:20.163Z,15.50
2019-01-23T02:20:20.111Z,15.60
2019-01-23T02:21:20.059Z,15.57
2019-01-23T02:22:20.006Z,15.59
2019-01-23T02:23:19.958Z,15.54
2019-01-23T02:24:19.903Z,15.60
2019-01-23T02:25:19.850Z,15.57
2019-01-23T02:26:19.797Z,15.57
2019-01-23T02:27:19.745Z,15.57
2019-01-23T02:28:19.693Z,15.54
2019-01-23T02:29:19.641Z,15.56
2019-01-23T02:30:19.590Z,15.57
2019-01-23T02:31:19.537Z,15.47
2019-01-23T02:32:19.485Z,15.50
2019-01-23T02:33:19.433Z,15.54
2019-01-23T02:34:19.381Z,15.53
2019-01-23T02:35:19.328Z,15.49
2019-01-23T02:36:19.277Z,15.59
2019-01-23T02:37:19.226Z,15.57
2019-01-23T02:38:19.172Z,15.51
2019-01-23T02:39:19.120Z,15.47
2019-01-23T02:40:19.070Z,15.46
2019-01-23T02:41:19.016Z,15.44
2019-01-23T02:42:18.963Z,15.43
2019-01-23T02:43:18.915Z,15.53
2019-01-23T02:44:18.860Z,15.50
2019-01-23T02:45:18.808Z,15.53
2019-01-23T02:46:18.754Z,15.56
2019-01-23T02:47:18.703Z,15.57
2019-01-23T02:48:18.651Z,15.56
2019-01-23T02:49:18.601Z,15.54
2019-01-23T02:50:18.546Z,15.59
2019-01-23T02:51:18.495Z,15.57
2019-01-23T02:52:18.444Z,15.60
2019-01-23T02:53:18.395Z,15.62
2019-01-23T02:54:18.338Z,15.60
2019-01-23T02:55:18.287Z,15.60
2019-01-23T02:56:18.234Z,15.53
2019-01-23T02:57:18.186Z,15.49
2019-01-23T02:58:18.129Z,15.60
2019-01-23T02:59:18.078Z,15.49
2019-01-23T03:00:18.025Z,15.59
2019-01-23T03:01:17.974Z,15.56
2019-01-23T03:02:17.921Z,15.56
2019-01-23T03:03:17.869Z,15.57
2019-01-23T03:04:17.817Z,15.57
2019-01-23T03:05:17.765Z,15.50
2019-01-23T03:06:17.712Z,15.44
2019-01-23T03:07:17.660Z,15.47
2019-01-23T03:08:17.608Z,15.36
2019-01-23T03:09:17.560Z,15.34
2019-01-23T03:10:17.511Z,15.36
2019-01-23T03:11:17.452Z,15.46
2019-01-23T03:12:17.400Z,15.46
2019-01-23T03:13:17.349Z,15.47
2019-01-23T03:14:17.296Z,15.51
2019-01-23T03:15:17.244Z,15.57
2019-01-23T03:16:17.193Z,15.53
2019-01-23T03:17:17.139Z,15.50
2019-01-23T03:18:17.088Z,15.59
2019-01-23T03:19:17.038Z,15.64
2019-01-23T03:20:16.986Z,15.59
2019-01-23T03:21:16.931Z,15.54
2019-01-23T03:22:16.878Z,15.53
2019-01-23T03:23:16.827Z,15.54
2019-01-23T03:24:16.775Z,15.44
2019-01-23T03:25:16.725Z,15.54
2019-01-23T03:26:16.671Z,15.50
2019-01-23T03:27:16.618Z,15.49
2019-01-23T03:28:16.565Z,15.59
2019-01-23T03:29:16.515Z,15.51
2019-01-23T03:30:16.484Z,15.47
2019-01-23T03:31:16.412Z,15.54
2019-01-23T03:32:16.358Z,15.41
2019-01-23T03:33:16.307Z,15.46
2019-01-23T03:34:16.252Z,15.46
2019-01-23T03:35:16.201Z,15.50
2019-01-23T03:36:16.148Z,15.49
2019-01-23T03:37:16.737Z,15.43
2019-01-23T03:38:16.053Z,15.50
2019-01-23T03:39:15.992Z,15.49
2019-01-23T03:40:15.941Z,15.65
2019-01-23T03:41:15.889Z,15.57
2019-01-23T03:42:15.835Z,15.57
2019-01-23T03:43:15.783Z,15.57
2019-01-23T03:44:15.765Z,15.60
2019-01-23T03:45:15.734Z,15.60
2019-01-23T03:46:15.627Z,15.69
2019-01-23T03:47:15.575Z,15.56
2019-01-23T03:48:15.572Z,15.62
2019-01-23T03:49:15.470Z,15.71
2019-01-23T03:50:15.417Z,15.71
2019-01-23T03:51:15.367Z,15.64
2019-01-23T03:52:15.314Z,15.75
2019-01-23T03:53:15.291Z,15.68
2019-01-23T03:54:15.209Z,15.69
2019-01-23T03:55:15.195Z,15.69
2019-01-23T03:56:15.104Z,15.60
2019-01-23T03:57:15.053Z,15.60
2019-01-23T03:58:15.001Z,15.59
2019-01-23T03:59:14.949Z,15.56
2019-01-23T04:00:14.898Z,15.54
2019-01-23T04:01:14.845Z,15.57
2019-01-23T04:02:14.792Z,15.56
2019-01-23T04:03:14.742Z,15.51
2019-01-23T04:04:14.690Z,15.59
2019-01-23T04:05:14.640Z,15.53
2019-01-23T04:06:14.584Z,15.57
2019-01-23T04:07:14.533Z,15.64
2019-01-23T04:08:14.481Z,15.65
2019-01-23T04:09:14.429Z,15.56
2019-01-23T04:10:14.375Z,15.71
2019-01-23T04:11:14.323Z,15.71
2019-01-23T04:12:14.276Z,15.67
2019-01-23T04:13:14.220Z,15.67
2019-01-23T04:14:14.167Z,15.65
2019-01-23T04:15:14.118Z,15.56
2019-01-23T04:16:14.063Z,15.62
2019-01-23T04:17:14.012Z,15.53
2019-01-23T04:18:13.958Z,15.54
2019-01-23T04:19:13.911Z,15.50
2019-01-23T04:20:13.855Z,15.59
2019-01-23T04:21:13.806Z,15.54
2019-01-23T04:22:13.751Z,15.50
2019-01-23T04:23:13.744Z,15.44
2019-01-23T04:24:13.648Z,15.41
2019-01-23T04:25:13.595Z,15.46
2019-01-23T04:26:13.542Z,15.50
2019-01-23T04:27:13.490Z,15.46
2019-01-23T04:28:13.442Z,15.50
2019-01-23T04:29:13.387Z,15.53
2019-01-23T04:30:13.338Z,15.57
2019-01-23T04:31:13.283Z,15.62
2019-01-23T04:32:13.231Z,15.59
2019-01-23T04:33:13.178Z,15.60
2019-01-23T04:34:13.126Z,15.60
2019-01-23T04:35:13.074Z,15.57
2019-01-23T04:36:13.021Z,15.60
2019-01-23T04:37:12.973Z,15.59
2019-01-23T04:38:12.918Z,15.60
2019-01-23T04:39:12.867Z,15.59
2019-01-23T04:40:12.828Z,15.65
2019-01-23T04:41:12.762Z,15.57
2019-01-23T04:42:12.709Z,15.56
2019-01-23T04:43:12.656Z,15.57
2019-01-23T04:44:12.606Z,15.54
2019-01-23T04:45:12.606Z,15.57
2019-01-23T04:46:12.501Z,15.60
2019-01-23T04:47:12.449Z,15.57
2019-01-23T04:48:12.397Z,15.51
2019-01-23T04:49:12.345Z,15.53
2019-01-23T04:50:12.300Z,15.56
2019-01-23T04:51:12.245Z,15.57
2019-01-23T04:52:12.189Z,15.53
2019-01-23T04:53:12.138Z,15.68
2019-01-23T04:54:12.085Z,15.62
2019-01-23T04:55:12.032Z,15.64
2019-01-23T04:56:11.980Z,15.74
2019-01-23T04:57:11.930Z,15.64
2019-01-23T04:58:11.876Z,15.65
2019-01-23T04:59:11.824Z,15.67
2019-01-23T05:00:11.773Z,15.62
2019-01-23T05:01:11.726Z,15.71
2019-01-23T05:02:11.667Z,15.56
2019-01-23T05:03:11.616Z,15.57
2019-01-23T05:04:11.563Z,15.51
2019-01-23T05:05:11.518Z,15.53
2019-01-23T05:06:11.459Z,15.50
2019-01-23T05:07:11.413Z,15.51
2019-01-23T05:08:11.357Z,15.50
2019-01-23T05:09:11.303Z,15.53
2019-01-23T05:10:11.250Z,15.41
2019-01-23T05:11:11.198Z,15.39
2019-01-23T05:12:11.147Z,15.43
2019-01-23T05:13:11.098Z,15.38
2019-01-23T05:14:11.043Z,15.36
2019-01-23T05:15:10.990Z,15.34
2019-01-23T05:16:10.938Z,15.34
2019-01-23T05:17:10.887Z,15.35
2019-01-23T05:18:10.834Z,15.31
2019-01-23T05:19:10.783Z,15.32
2019-01-23T05:20:10.728Z,15.34
2019-01-23T05:21:10.679Z,15.35
2019-01-23T05:22:10.625Z,15.41
2019-01-23T05:23:10.573Z,15.41
2019-01-23T05:24:10.522Z,15.46
2019-01-23T05:25:10.469Z,15.39
2019-01-23T05:26:10.422Z,15.36
2019-01-23T05:27:10.414Z,15.34
2019-01-23T05:28:10.313Z,15.38
2019-01-23T05:29:10.260Z,15.44
2019-01-23T05:30:10.208Z,15.50
2019-01-23T05:31:10.155Z,15.44
2019-01-23T05:32:10.105Z,15.46
2019-01-23T05:33:10.052Z,15.44
2019-01-23T05:34:10.000Z,15.50
2019-01-23T05:35:09.946Z,15.49
2019-01-23T05:36:09.897Z,15.47
2019-01-23T05:37:09.849Z,15.41
2019-01-23T05:38:09.789Z,15.53
2019-01-23T05:39:09.737Z,15.50
2019-01-23T05:40:09.687Z,15.44
2019-01-23T05:41:09.635Z,15.54
2019-01-23T05:42:09.583Z,15.49
2019-01-23T05:43:09.580Z,15.54
2019-01-23T05:44:09.478Z,15.50
2019-01-23T05:45:10.617Z,15.54
2019-01-23T05:46:09.373Z,15.62
2019-01-23T05:47:09.327Z,15.50
2019-01-23T05:48:09.269Z,15.46
2019-01-23T05:49:09.221Z,15.49
2019-01-23T05:50:09.169Z,15.47
2019-01-23T05:51:09.112Z,15.43
2019-01-23T05:52:09.061Z,15.41
2019-01-23T05:53:09.009Z,15.57
2019-01-23T05:54:08.955Z,15.60
2019-01-23T05:55:08.904Z,15.49
2019-01-23T05:56:08.852Z,15.57
2019-01-23T05:57:08.801Z,15.56
2019-01-23T05:58:10.164Z,15.53
2019-01-23T05:59:08.696Z,15.51
2019-01-23T06:00:08.643Z,15.44
2019-01-23T06:01:08.641Z,15.46
2019-01-23T06:02:08.539Z,15.41
2019-01-23T06:03:08.494Z,15.51
2019-01-23T06:04:08.436Z,15.50
2019-01-23T06:05:08.383Z,15.49
2019-01-23T06:06:08.330Z,15.49
2019-01-23T06:07:08.296Z,15.49
2019-01-23T06:08:08.226Z,15.44
2019-01-23T06:09:08.174Z,15.44
2019-01-23T06:10:08.121Z,15.38
2019-01-23T06:11:08.071Z,15.38
2019-01-23T06:12:08.017Z,15.34
2019-01-23T06:13:07.964Z,15.41
2019-01-23T06:14:07.915Z,15.32
2019-01-23T06:15:07.870Z,15.41
2019-01-23T06:16:07.809Z,15.41
2019-01-23T06:17:07.767Z,15.41
2019-01-23T06:18:07.703Z,15.50
2019-01-23T06:19:07.652Z,15.44
2019-01-23T06:20:07.599Z,15.44
2019-01-23T06:21:07.598Z,15.53
2019-01-23T06:22:07.505Z,15.57
2019-01-23T06:23:07.443Z,15.49
2019-01-23T06:24:07.392Z,15.46
2019-01-23T06:25:07.340Z,15.39
2019-01-23T06:26:07.287Z,15.31
2019-01-23T06:27:07.234Z,15.41
2019-01-23T06:28:07.183Z,15.36
2019-01-23T06:29:07.131Z,15.46
2019-01-23T06:30:10.391Z,15.44
2019-01-23T06:31:07.027Z,15.43
2019-01-23T06:32:06.974Z,15.36
2019-01-23T06:33:06.923Z,15.39
2019-01-23T06:34:06.874Z,15.34
2019-01-23T06:35:06.817Z,15.43
2019-01-23T06:36:06.769Z,15.39
2019-01-23T06:37:06.714Z,15.35
2019-01-23T06:38:06.661Z,15.35
2019-01-23T06:39:06.609Z,15.46
2019-01-23T06:40:06.557Z,15.46
2019-01-23T06:41:06.555Z,15.38
2019-01-23T06:42:06.455Z,15.50
2019-01-23T06:43:06.399Z,15.43
2019-01-23T06:44:06.348Z,15.44
2019-01-23T06:45:06.296Z,15.50
2019-01-23T06:46:06.244Z,15.44
2019-01-23T06:47:06.192Z,15.50
2019-01-23T06:48:06.140Z,15.53
2019-01-23T06:49:06.088Z,15.53
2019-01-23T06:50:06.035Z,15.44
2019-01-23T06:51:05.983Z,15.53
2019-01-23T06:52:05.931Z,15.51
2019-01-23T06:53:05.878Z,15.54
2019-01-23T06:54:05.826Z,15.53
2019-01-23T06:55:05.774Z,15.51
2019-01-23T06:56:05.722Z,15.59
2019-01-23T06:57:05.670Z,15.54
2019-01-23T06:58:05.617Z,15.57
2019-01-23T06:59:05.614Z,15.57
2019-01-23T07:00:05.519Z,15.60
2019-01-23T07:01:05.463Z,15.51
2019-01-23T07:02:05.411Z,15.57
2019-01-23T07:03:05.360Z,15.57
2019-01-23T07:04:05.304Z,15.54
2019-01-23T07:05:05.254Z,15.62
2019-01-23T07:06:05.206Z,15.56
2019-01-23T07:07:06.587Z,15.60
2019-01-23T07:08:05.096Z,15.57
2019-01-23T07:09:05.046Z,15.60
2019-01-23T07:10:05.004Z,15.53
2019-01-23T07:11:04.940Z,15.57
2019-01-23T07:12:04.887Z,15.59
2019-01-23T07:13:04.836Z,15.59
2019-01-23T07:14:04.782Z,15.57
2019-01-23T07:15:04.731Z,15.59
2019-01-23T07:16:04.678Z,15.62
2019-01-23T07:17:04.631Z,15.59
2019-01-23T07:18:04.573Z,15.67
2019-01-23T07:19:04.574Z,15.56
2019-01-23T07:20:04.470Z,15.72
2019-01-23T07:21:04.428Z,15.71
2019-01-23T07:22:04.366Z,15.68
2019-01-23T07:23:04.314Z,15.69
2019-01-23T07:24:04.262Z,15.71
2019-01-23T07:25:04.209Z,15.68
2019-01-23T07:26:04.156Z,15.57
2019-01-23T07:27:04.106Z,15.59
2019-01-23T07:28:04.055Z,15.69
2019-01-23T07:29:04.004Z,15.64
2019-01-23T07:30:03.948Z,15.67
2019-01-23T07:31:03.898Z,15.68
2019-01-23T07:32:03.845Z,15.72
2019-01-23T07:33:03.794Z,15.65
2019-01-23T07:34:03.742Z,15.65
2019-01-23T07:35:03.691Z,15.76
2019-01-23T07:36:03.637Z,15.67
2019-01-23T07:37:03.585Z,15.72
2019-01-23T07:38:03.533Z,15.71
2019-01-23T07:39:03.482Z,15.75
2019-01-23T07:40:03.429Z,15.69
2019-01-23T07:41:03.382Z,15.74
2019-01-23T07:42:03.325Z,15.80
2019-01-23T07:43:03.273Z,15.71
2019-01-23T07:44:03.221Z,15.76
2019-01-23T07:45:03.169Z,15.78
2019-01-23T07:46:03.115Z,15.76
2019-01-23T07:47:03.064Z,15.78
2019-01-23T07:48:03.012Z,15.83
2019-01-23T07:49:02.960Z,15.78
2019-01-23T07:50:02.909Z,15.80
2019-01-23T07:51:02.855Z,15.80
2019-01-23T07:52:02.805Z,15.78
2019-01-23T07:53:02.752Z,15.80
2019-01-23T07:54:02.700Z,15.78
2019-01-23T07:55:02.648Z,15.76
2019-01-23T07:56:02.597Z,15.80
2019-01-23T07:57:02.545Z,15.84
2019-01-23T07:58:02.492Z,15.83
2019-01-23T07:59:02.440Z,15.80
2019-01-23T08:00:02.390Z,15.76
2019-01-23T08:01:02.341Z,15.80
2019-01-23T08:02:02.285Z,15.80
2019-01-23T08:03:02.231Z,15.83
2019-01-23T08:04:02.181Z,15.76
2019-01-23T08:05:02.130Z,15.80
2019-01-23T08:06:02.077Z,15.78
2019-01-23T08:07:02.024Z,15.76
2019-01-23T08:08:01.973Z,15.89
2019-01-23T08:09:01.925Z,15.84
2019-01-23T08:10:01.868Z,15.84
2019-01-23T08:11:01.816Z,15.83
2019-01-23T08:12:01.765Z,15.83
2019-01-23T08:13:01.725Z,15.86
2019-01-23T08:14:01.853Z,15.78
2019-01-23T08:15:01.715Z,15.78
2019-01-23T08:16:01.757Z,15.87
2019-01-23T08:17:01.506Z,15.89
2019-01-23T08:18:01.459Z,15.83
2019-01-23T08:19:01.402Z,15.82
2019-01-23T08:20:02.798Z,15.80
2019-01-23T08:21:01.299Z,15.83
2019-01-23T08:22:01.244Z,15.90
2019-01-23T08:23:01.198Z,15.83
2019-01-23T08:24:01.144Z,15.84
2019-01-23T08:25:01.092Z,15.94
2019-01-23T08:26:01.050Z,15.93
2019-01-23T08:27:07.043Z,15.90
2019-01-23T08:28:00.934Z,15.92
2019-01-23T08:29:00.885Z,15.84
2019-01-23T08:30:00.829Z,15.82
2019-01-23T08:31:00.779Z,15.86
2019-01-23T08:32:00.730Z,15.82
2019-01-23T08:33:00.674Z,15.90
2019-01-23T08:34:00.772Z,15.82
2019-01-23T08:35:00.727Z,15.93
2019-01-23T08:36:00.518Z,15.93
2019-01-23T08:37:00.468Z,15.87
2019-01-23T08:38:00.415Z,15.89
2019-01-23T08:39:00.371Z,15.90
2019-01-23T08:40:00.312Z,15.90
2019-01-23T08:41:00.259Z,15.80
2019-01-23T08:42:00.206Z,15.80
2019-01-23T08:43:00.156Z,15.83
2019-01-23T08:44:00.105Z,15.75
2019-01-23T08:45:00.056Z,15.80
2019-01-23T08:46:00.000Z,15.82
2019-01-23T08:46:59.949Z,15.87
2019-01-23T08:47:59.896Z,15.89
2019-01-23T08:48:59.844Z,15.78
2019-01-23T08:49:59.793Z,15.87
2019-01-23T08:50:59.741Z,15.83
2019-01-23T08:51:59.689Z,15.84
2019-01-23T08:52:59.638Z,15.84
2019-01-23T08:53:59.586Z,15.84
2019-01-23T08:54:59.535Z,15.96
2019-01-23T08:55:59.536Z,15.93
2019-01-23T08:56:59.431Z,15.89
2019-01-23T08:57:59.379Z,15.87
2019-01-23T08:58:59.330Z,15.83
2019-01-23T08:59:59.591Z,15.76
2019-01-23T09:00:59.223Z,15.75
2019-01-23T09:01:59.171Z,15.78
2019-01-23T09:02:59.118Z,15.76
2019-01-23T09:03:59.067Z,15.76
2019-01-23T09:04:59.016Z,15.87
2019-01-23T09:05:58.963Z,15.87
2019-01-23T09:06:58.912Z,15.82
2019-01-23T09:07:58.860Z,15.87
2019-01-23T09:08:58.808Z,15.92
2019-01-23T09:09:58.757Z,15.86
2019-01-23T09:10:58.706Z,15.87
2019-01-23T09:11:58.654Z,15.92
2019-01-23T09:12:58.603Z,15.89
2019-01-23T09:13:58.550Z,15.93
2019-01-23T09:14:58.498Z,15.97
2019-01-23T09:15:58.446Z,15.96
2019-01-23T09:16:58.396Z,16.05
2019-01-23T09:17:58.342Z,15.90
2019-01-23T09:18:58.292Z,15.89
2019-01-23T09:19:58.239Z,15.92
2019-01-23T09:20:58.188Z,15.90
2019-01-23T09:21:58.136Z,15.90
2019-01-23T09:22:58.086Z,15.89
2019-01-23T09:23:58.033Z,15.92
2019-01-23T09:24:57.983Z,15.90
2019-01-23T09:25:57.930Z,15.92
2019-01-23T09:26:57.878Z,15.90
2019-01-23T09:27:57.825Z,15.87
2019-01-23T09:28:57.774Z,15.84
2019-01-23T09:29:57.721Z,15.83
2019-01-23T09:30:57.670Z,15.94
2019-01-23T09:31:57.620Z,15.87
2019-01-23T09:32:57.568Z,15.92
2019-01-23T09:33:57.516Z,15.94
2019-01-23T09:34:57.464Z,15.93
2019-01-23T09:35:57.411Z,15.97
2019-01-23T09:36:57.361Z,16.00
2019-01-23T09:37:57.308Z,16.07
2019-01-23T09:38:57.256Z,16.11
2019-01-23T09:39:57.208Z,16.09
2019-01-23T09:40:57.154Z,16.08
2019-01-23T09:41:57.100Z,16.07
2019-01-23T09:42:57.050Z,16.12
2019-01-23T09:43:56.997Z,16.12
2019-01-23T09:44:56.948Z,16.05
2019-01-23T09:45:56.893Z,16.17
2019-01-23T09:46:56.846Z,16.17
2019-01-23T09:47:56.792Z,16.11
2019-01-23T09:48:56.740Z,16.12
2019-01-23T09:49:56.688Z,16.07
2019-01-23T09:50:56.636Z,16.12
2019-01-23T09:51:56.585Z,16.09
2019-01-23T09:52:56.535Z,16.11
2019-01-23T09:53:56.480Z,16.08
2019-01-23T09:54:56.429Z,16.09
2019-01-23T09:55:56.378Z,16.08
2019-01-23T09:56:56.326Z,16.08
2019-01-23T09:57:56.275Z,16.11
2019-01-23T09:58:56.222Z,16.08
2019-01-23T09:59:56.172Z,16.07
2019-01-23T10:00:59.832Z,16.09
2019-01-23T10:01:56.068Z,16.14
2019-01-23T10:02:56.020Z,16.11
2019-01-23T10:03:55.966Z,16.08
2019-01-23T10:04:55.913Z,16.12
2019-01-23T10:05:55.862Z,16.11
2019-01-23T10:06:55.811Z,16.09
2019-01-23T10:07:55.759Z,16.09
2019-01-23T10:08:56.514Z,16.09
2019-01-23T10:09:55.655Z,16.09
2019-01-23T10:10:55.603Z,16.05
2019-01-23T10:11:55.553Z,16.11
2019-01-23T10:12:55.500Z,16.08
2019-01-23T10:13:55.449Z,16.07
2019-01-23T10:14:55.396Z,16.09
2019-01-23T10:15:55.352Z,16.11
2019-01-23T10:16:55.294Z,16.09
2019-01-23T10:17:55.241Z,16.12
2019-01-23T10:18:56.175Z,16.02
2019-01-23T10:19:55.140Z,16.05
2019-01-23T10:20:55.087Z,16.04
2019-01-23T10:21:55.035Z,16.04
2019-01-23T10:22:54.985Z,16.07
2019-01-23T10:23:54.936Z,16.08
2019-01-23T10:24:54.882Z,16.08
2019-01-23T10:25:54.829Z,16.08
2019-01-23T10:26:54.778Z,16.11
2019-01-23T10:27:54.727Z,16.07
2019-01-23T10:28:54.675Z,16.08
2019-01-23T10:29:54.623Z,16.05
2019-01-23T10:30:54.572Z,16.07
2019-01-23T10:31:54.520Z,16.02
2019-01-23T10:32:54.469Z,16.04
2019-01-23T10:33:54.419Z,16.04
2019-01-23T10:34:54.366Z,16.01
2019-01-23T10:35:54.325Z,16.04
2019-01-23T10:36:54.262Z,16.02
2019-01-23T10:37:54.211Z,15.97
2019-01-23T10:38:54.159Z,16.00
2019-01-23T10:39:54.110Z,15.96
2019-01-23T10:40:54.057Z,15.93
2019-01-23T10:41:54.015Z,15.97
2019-01-23T10:42:53.954Z,16.05
2019-01-23T10:43:53.901Z,16.02
2019-01-23T10:44:53.851Z,16.04
2019-01-23T10:45:53.797Z,16.00
2019-01-23T10:46:53.751Z,16.00
2019-01-23T10:47:56.179Z,15.97
2019-01-23T10:48:53.645Z,16.00
2019-01-23T10:49:53.591Z,16.01
2019-01-23T10:50:53.590Z,15.93
2019-01-23T10:51:53.490Z,15.90
2019-01-23T10:52:53.438Z,15.83
2019-01-23T10:53:53.386Z,15.92
2019-01-23T10:54:53.336Z,15.82
2019-01-23T10:55:53.283Z,15.87
2019-01-23T10:56:53.232Z,15.83
2019-01-23T10:57:53.179Z,15.94
2019-01-23T10:58:53.128Z,15.92
2019-01-23T10:59:53.077Z,15.96
2019-01-23T11:00:53.028Z,15.94
2019-01-23T11:01:52.973Z,15.92
2019-01-23T11:02:52.923Z,15.83
2019-01-23T11:03:52.874Z,15.89
2019-01-23T11:04:52.821Z,15.82
2019-01-23T11:05:52.767Z,15.76
2019-01-23T11:06:52.716Z,15.74
2019-01-23T11:07:52.664Z,15.74
2019-01-23T11:08:52.664Z,15.65
2019-01-23T11:09:52.562Z,15.72
2019-01-23T11:10:52.509Z,15.68
2019-01-23T11:11:52.460Z,15.69
2019-01-23T11:12:52.407Z,15.69
2019-01-23T11:13:52.354Z,15.68
2019-01-23T11:14:52.302Z,15.72
2019-01-23T11:15:52.252Z,15.68
2019-01-23T11:16:52.201Z,15.74
2019-01-23T11:17:52.147Z,15.83
2019-01-23T11:18:52.097Z,15.76
2019-01-23T11:19:52.046Z,15.78
2019-01-23T11:20:51.993Z,15.76
2019-01-23T11:21:51.995Z,15.76
2019-01-23T11:22:51.890Z,15.80
2019-01-23T11:23:51.838Z,15.80
2019-01-23T11:24:51.787Z,15.90
2019-01-23T11:25:51.734Z,15.80
2019-01-23T11:26:51.685Z,15.82
2019-01-23T11:27:51.630Z,15.82
2019-01-23T11:28:51.580Z,15.76
2019-01-23T11:29:51.527Z,15.78
2019-01-23T11:30:51.475Z,15.82
2019-01-23T11:31:51.424Z,15.82
2019-01-23T11:32:51.372Z,15.83
2019-01-23T11:33:51.320Z,15.82
2019-01-23T11:34:51.269Z,15.78
2019-01-23T11:35:51.217Z,15.72
2019-01-23T11:36:51.166Z,15.78
2019-01-23T11:37:51.430Z,15.68
2019-01-23T11:39:51.412Z,15.68
2019-01-23T11:40:50.959Z,15.72
2019-01-23T11:41:50.906Z,15.71
2019-01-23T11:42:50.854Z,15.72
2019-01-23T11:43:50.805Z,15.72
2019-01-23T11:44:50.752Z,15.80
2019-01-23T11:45:50.699Z,15.80
2019-01-23T11:46:50.648Z,15.76
2019-01-23T11:47:50.597Z,15.86
2019-01-23T11:48:50.545Z,15.84
2019-01-23T11:49:50.492Z,15.76
2019-01-23T11:50:50.442Z,15.80
2019-01-23T11:51:50.390Z,15.80
2019-01-23T11:52:50.338Z,15.75
2019-01-23T11:53:50.286Z,15.80
2019-01-23T11:54:50.236Z,15.78
2019-01-23T11:55:50.183Z,15.83
2019-01-23T11:56:50.132Z,15.76
2019-01-23T11:57:50.080Z,15.84
2019-01-23T11:58:50.027Z,15.78
2019-01-23T11:59:49.977Z,15.83
2019-01-23T12:00:49.925Z,15.78
2019-01-23T12:01:49.873Z,15.80
2019-01-23T12:02:49.820Z,15.80
2019-01-23T12:03:49.770Z,15.69
2019-01-23T12:04:49.717Z,15.72
2019-01-23T12:05:49.665Z,15.76
2019-01-23T12:06:49.614Z,15.76
2019-01-23T12:07:49.567Z,15.82
2019-01-23T12:08:49.510Z,15.82
2019-01-23T12:09:49.459Z,15.86
2019-01-23T12:10:49.407Z,15.76
2019-01-23T12:11:49.356Z,15.82
2019-01-23T12:12:49.318Z,15.84
2019-01-23T12:13:49.251Z,15.83
2019-01-23T12:14:49.202Z,15.80
2019-01-23T12:15:49.149Z,15.76
2019-01-23T12:16:49.097Z,15.80
2019-01-23T12:17:49.045Z,15.78
2019-01-23T12:18:48.999Z,15.76
2019-01-23T12:19:48.942Z,15.83
2019-01-23T12:20:48.890Z,15.89
2019-01-23T12:21:48.837Z,15.84
2019-01-23T12:22:48.787Z,15.84
2019-01-23T12:23:48.737Z,15.87
2019-01-23T12:24:48.684Z,15.76
2019-01-23T12:25:48.631Z,15.84
2019-01-23T12:26:48.579Z,15.83
2019-01-23T12:27:48.528Z,15.76
2019-01-23T12:28:48.476Z,15.76
2019-01-23T12:29:48.425Z,15.80
2019-01-23T12:30:48.373Z,15.78
2019-01-23T12:31:48.324Z,15.78
2019-01-23T12:32:48.270Z,15.82
2019-01-23T12:33:48.218Z,15.82
2019-01-23T12:34:48.166Z,15.83
2019-01-23T12:35:48.116Z,15.83
2019-01-23T12:36:48.063Z,15.86
2019-01-23T12:37:48.011Z,15.87
2019-01-23T12:38:47.958Z,15.86
2019-01-23T12:39:47.910Z,15.83
2019-01-23T12:40:47.856Z,15.86
2019-01-23T12:41:47.906Z,15.87
2019-01-23T12:42:47.752Z,15.82
2019-01-23T12:43:47.701Z,15.89
2019-01-23T12:44:47.652Z,15.86
2019-01-23T12:45:47.597Z,15.96
2019-01-23T12:46:47.596Z,15.93
2019-01-23T12:47:47.495Z,15.87
2019-01-23T12:48:47.442Z,15.93
2019-01-23T12:49:47.396Z,15.92
2019-01-23T12:50:47.339Z,15.92
2019-01-23T12:51:47.288Z,15.92
2019-01-23T12:52:47.237Z,15.94